createdAt,value
2022-10-19T00:00:19.523Z,16
2022-10-19T00:01:19.397Z,46
2022-10-19T00:02:19.599Z,54
2022-10-19T00:03:22.394Z,44
2022-10-19T00:04:19.410Z,32
2022-10-19T00:05:19.421Z,26
2022-10-19T00:06:19.478Z,42
2022-10-19T00:07:19.444Z,19
2022-10-19T00:08:19.401Z,34
2022-10-19T00:09:19.490Z,26
2022-10-19T00:10:19.512Z,71
2022-10-19T00:11:19.426Z,80
2022-10-19T00:12:19.487Z,67
2022-10-19T00:13:19.504Z,69
2022-10-19T00:14:19.418Z,63
2022-10-19T00:15:19.526Z,41
2022-10-19T00:16:19.419Z,66
2022-10-19T00:17:19.405Z,43
2022-10-19T00:18:19.409Z,56
2022-10-19T00:19:19.407Z,71
2022-10-19T00:20:19.538Z,34
2022-10-19T00:21:19.531Z,50
2022-10-19T00:22:19.445Z,41
2022-10-19T00:23:19.515Z,19
2022-10-19T00:24:19.427Z,64
2022-10-19T00:25:19.557Z,40
2022-10-19T00:26:19.446Z,56
2022-10-19T00:27:19.436Z,54
2022-10-19T00:28:19.407Z,32
2022-10-19T00:29:19.467Z,30
2022-10-19T00:30:19.572Z,24
2022-10-19T00:31:19.478Z,31
2022-10-19T00:32:19.472Z,18
2022-10-19T00:33:19.405Z,31
2022-10-19T00:34:19.499Z,26
2022-10-19T00:35:19.531Z,31
2022-10-19T00:36:19.518Z,36
2022-10-19T00:37:19.411Z,44
2022-10-19T00:38:19.520Z,26
2022-10-19T00:39:19.551Z,28
2022-10-19T00:40:19.391Z,31
2022-10-19T00:41:19.440Z,18
2022-10-19T00:42:19.454Z,19
2022-10-19T00:43:19.438Z,25
2022-10-19T00:44:19.417Z,30
2022-10-19T00:45:19.390Z,77
2022-10-19T00:46:19.459Z,33
2022-10-19T00:47:19.408Z,31
2022-10-19T00:48:19.481Z,45
2022-10-19T00:49:19.425Z,45
2022-10-19T00:50:19.492Z,39
2022-10-19T00:51:19.503Z,43
2022-10-19T00:52:19.398Z,46
2022-10-19T00:53:19.501Z,41
2022-10-19T00:54:19.519Z,29
2022-10-19T00:55:19.419Z,7
2022-10-19T00:56:19.408Z,7
2022-10-19T00:57:19.416Z,8
2022-10-19T00:58:19.436Z,9
2022-10-19T00:59:19.466Z,7
2022-10-19T01:00:19.390Z,6
2022-10-19T01:01:19.567Z,7
2022-10-19T01:02:19.471Z,7
2022-10-19T01:03:19.473Z,7
2022-10-19T01:04:19.419Z,8
2022-10-19T01:05:19.402Z,10
2022-10-19T01:06:19.517Z,9
2022-10-19T01:07:19.502Z,8
2022-10-19T01:08:19.406Z,12
2022-10-19T01:09:19.528Z,11
2022-10-19T01:10:19.542Z,10
2022-10-19T01:11:19.447Z,9
2022-10-19T01:12:19.461Z,10
2022-10-19T01:13:19.532Z,10
2022-10-19T01:14:19.621Z,9
2022-10-19T01:15:19.466Z,10
2022-10-19T01:16:19.672Z,12
2022-10-19T01:17:19.665Z,12
2022-10-19T01:18:19.670Z,9
2022-10-19T01:19:19.793Z,12
2022-10-19T01:20:19.770Z,11
2022-10-19T01:21:19.767Z,13
2022-10-19T01:22:19.910Z,12
2022-10-19T01:23:19.499Z,12
2022-10-19T01:24:19.415Z,8
2022-10-19T01:25:19.454Z,9
2022-10-19T01:26:19.443Z,11
2022-10-19T01:27:19.400Z,9
2022-10-19T01:28:19.557Z,8
2022-10-19T01:29:19.449Z,9
2022-10-19T01:30:19.443Z,8
2022-10-19T01:31:19.465Z,10
2022-10-19T01:32:19.463Z,9
2022-10-19T01:33:19.465Z,8
2022-10-19T01:34:19.494Z,8
2022-10-19T01:35:19.487Z,10
2022-10-19T01:36:19.486Z,10
2022-10-19T01:37:19.514Z,8
2022-10-19T01:38:19.396Z,8
2022-10-19T01:39:19.420Z,10
2022-10-19T01:40:19.514Z,11
2022-10-19T01:41:19.546Z,10
2022-10-19T01:42:19.398Z,8
2022-10-19T01:43:19.538Z,9
2022-10-19T01:44:19.419Z,14
2022-10-19T01:45:19.407Z,15
2022-10-19T01:46:19.462Z,11
2022-10-19T01:47:19.526Z,9
2022-10-19T01:48:19.462Z,12
2022-10-19T01:49:19.463Z,9
2022-10-19T01:50:19.487Z,11
2022-10-19T01:51:19.494Z,11
2022-10-19T01:52:19.433Z,12
2022-10-19T01:53:19.409Z,14
2022-10-19T01:54:19.406Z,11
2022-10-19T01:55:19.401Z,10
2022-10-19T01:56:19.540Z,13
2022-10-19T01:57:19.525Z,12
2022-10-19T01:58:19.437Z,13
2022-10-19T01:59:19.452Z,12
2022-10-19T02:00:19.440Z,11
2022-10-19T02:01:19.450Z,10
2022-10-19T02:02:19.459Z,10
2022-10-19T02:03:19.463Z,9
2022-10-19T02:04:19.453Z,9
2022-10-19T02:05:19.487Z,7
2022-10-19T02:06:19.407Z,10
2022-10-19T02:07:19.395Z,8
2022-10-19T02:08:19.503Z,10
2022-10-19T02:09:19.519Z,11
2022-10-19T02:10:19.418Z,9
2022-10-19T02:11:19.459Z,8
2022-10-19T02:12:19.536Z,10
2022-10-19T02:13:19.426Z,9
2022-10-19T02:14:19.460Z,10
2022-10-19T02:15:19.442Z,14
2022-10-19T02:16:19.467Z,12
2022-10-19T02:17:19.421Z,7
2022-10-19T02:18:19.463Z,8
2022-10-19T02:19:19.500Z,12
2022-10-19T02:20:19.483Z,8
2022-10-19T02:21:19.478Z,9
2022-10-19T02:22:19.573Z,11
2022-10-19T02:23:19.515Z,9
2022-10-19T02:24:19.540Z,14
2022-10-19T02:25:19.638Z,10
2022-10-19T02:26:19.645Z,8
2022-10-19T02:27:19.541Z,11
2022-10-19T02:28:19.672Z,13
2022-10-19T02:29:19.713Z,11
2022-10-19T02:30:19.780Z,10
2022-10-19T02:31:19.773Z,10
2022-10-19T02:32:19.693Z,8
2022-10-19T02:33:19.782Z,11
2022-10-19T02:34:19.427Z,12
2022-10-19T02:35:19.483Z,8
2022-10-19T02:36:19.486Z,12
2022-10-19T02:37:22.064Z,9
2022-10-19T02:38:19.504Z,12
2022-10-19T02:39:19.521Z,11
2022-10-19T02:40:19.406Z,10
2022-10-19T02:41:19.436Z,11
2022-10-19T02:42:19.517Z,10
2022-10-19T02:43:19.464Z,11
2022-10-19T02:44:19.453Z,11
2022-10-19T02:45:19.449Z,9
2022-10-19T02:46:19.446Z,9
2022-10-19T02:47:19.407Z,8
2022-10-19T02:48:19.458Z,9
2022-10-19T02:49:19.502Z,7
2022-10-19T02:50:19.475Z,11
2022-10-19T02:51:19.492Z,7
2022-10-19T02:52:19.496Z,9
2022-10-19T02:53:19.492Z,10
2022-10-19T02:54:19.549Z,11
2022-10-19T02:55:19.516Z,10
2022-10-19T02:56:19.432Z,11
2022-10-19T02:57:19.456Z,11
2022-10-19T02:58:19.453Z,10
2022-10-19T02:59:19.574Z,9
2022-10-19T03:00:19.452Z,10
2022-10-19T03:01:19.475Z,11
2022-10-19T03:02:19.453Z,10
2022-10-19T03:03:19.459Z,8
2022-10-19T03:04:19.449Z,10
2022-10-19T03:05:19.396Z,10
2022-10-19T03:06:19.494Z,11
2022-10-19T03:07:19.503Z,11
2022-10-19T03:08:19.493Z,11
2022-10-19T03:09:19.505Z,12
2022-10-19T03:10:19.420Z,11
2022-10-19T03:11:19.532Z,10
2022-10-19T03:12:19.447Z,10
2022-10-19T03:13:19.419Z,9
2022-10-19T03:14:19.487Z,10
2022-10-19T03:15:19.502Z,10
2022-10-19T03:16:19.461Z,11
2022-10-19T03:17:19.545Z,13
2022-10-19T03:18:19.465Z,17
2022-10-19T03:19:19.477Z,25
2022-10-19T03:20:19.471Z,36
2022-10-19T03:21:19.484Z,26
2022-10-19T03:22:19.477Z,20
2022-10-19T03:23:19.410Z,33
2022-10-19T03:24:19.435Z,43
2022-10-19T03:25:19.442Z,94
2022-10-19T03:26:19.527Z,49
2022-10-19T03:27:19.566Z,20
2022-10-19T03:28:19.412Z,30
2022-10-19T03:29:19.524Z,38
2022-10-19T03:30:19.550Z,30
2022-10-19T03:31:19.448Z,14
2022-10-19T03:32:19.464Z,14
2022-10-19T03:33:19.498Z,16
2022-10-19T03:34:19.426Z,11
2022-10-19T03:35:19.404Z,8
2022-10-19T03:36:19.410Z,7
2022-10-19T03:37:19.517Z,8
2022-10-19T03:38:19.500Z,8
2022-10-19T03:39:19.435Z,9
2022-10-19T03:40:19.422Z,9
2022-10-19T03:41:19.446Z,8
2022-10-19T03:42:19.717Z,9
2022-10-19T03:43:19.613Z,10
2022-10-19T03:44:19.443Z,15
2022-10-19T03:45:19.531Z,8
2022-10-19T03:46:19.541Z,10
2022-10-19T03:47:19.526Z,11
2022-10-19T03:48:19.452Z,10
2022-10-19T03:49:19.499Z,10
2022-10-19T03:50:19.437Z,7
2022-10-19T03:51:19.485Z,11
2022-10-19T03:52:19.468Z,10
2022-10-19T03:53:19.447Z,10
2022-10-19T03:54:22.454Z,9
2022-10-19T03:55:21.558Z,8
2022-10-19T03:56:19.456Z,7
2022-10-19T03:57:19.434Z,8
2022-10-19T03:58:19.437Z,10
2022-10-19T03:59:19.427Z,12
2022-10-19T04:00:19.421Z,10
2022-10-19T04:01:19.596Z,9
2022-10-19T04:02:19.439Z,10
2022-10-19T04:03:19.444Z,7
2022-10-19T04:04:19.414Z,7
2022-10-19T04:05:19.416Z,10
2022-10-19T04:06:21.959Z,8
2022-10-19T04:07:19.403Z,10
2022-10-19T04:08:19.440Z,9
2022-10-19T04:09:19.481Z,10
2022-10-19T04:10:19.408Z,10
2022-10-19T04:11:19.493Z,12
2022-10-19T04:12:19.423Z,10
2022-10-19T04:13:19.408Z,15
2022-10-19T04:14:31.642Z,12
2022-10-19T04:15:19.566Z,13
2022-10-19T04:16:19.610Z,10
2022-10-19T04:17:19.703Z,13
2022-10-19T04:18:19.792Z,11
2022-10-19T04:19:19.783Z,11
2022-10-19T04:20:19.711Z,11
2022-10-19T04:21:19.754Z,14
2022-10-19T04:22:19.462Z,12
2022-10-19T04:23:19.476Z,9
2022-10-19T04:24:19.480Z,12
2022-10-19T04:25:19.454Z,11
2022-10-19T04:26:19.518Z,10
2022-10-19T04:27:19.527Z,9
2022-10-19T04:28:19.501Z,10
2022-10-19T04:29:19.526Z,9
2022-10-19T04:30:19.407Z,11
2022-10-19T04:31:19.407Z,10
2022-10-19T04:32:19.530Z,8
2022-10-19T04:33:19.431Z,11
2022-10-19T04:34:19.433Z,10
2022-10-19T04:35:19.548Z,10
2022-10-19T04:36:19.456Z,10
2022-10-19T04:37:19.448Z,13
2022-10-19T04:38:19.408Z,9
2022-10-19T04:39:19.488Z,10
2022-10-19T04:40:19.450Z,9
2022-10-19T04:41:19.491Z,10
2022-10-19T04:42:19.501Z,12
2022-10-19T04:43:19.585Z,10
2022-10-19T04:44:19.462Z,10
2022-10-19T04:45:19.516Z,9
2022-10-19T04:46:19.412Z,9
2022-10-19T04:47:19.512Z,10
2022-10-19T04:48:19.529Z,13
2022-10-19T04:49:20.347Z,11
2022-10-19T04:50:19.432Z,10
2022-10-19T04:51:19.452Z,12
2022-10-19T04:52:19.428Z,8
2022-10-19T04:53:19.561Z,11
2022-10-19T04:54:19.477Z,11
2022-10-19T04:55:19.623Z,12
2022-10-19T04:56:19.688Z,10
2022-10-19T04:57:19.781Z,9
2022-10-19T04:58:19.738Z,9
2022-10-19T04:59:19.729Z,12
2022-10-19T05:00:19.694Z,11
2022-10-19T05:01:19.492Z,12
2022-10-19T05:02:19.858Z,9
2022-10-19T05:03:19.786Z,10
2022-10-19T05:04:19.465Z,10
2022-10-19T05:05:19.403Z,9
2022-10-19T05:06:19.442Z,9
2022-10-19T05:07:19.444Z,11
2022-10-19T05:08:19.456Z,11
2022-10-19T05:09:19.473Z,8
2022-10-19T05:10:19.421Z,9
2022-10-19T05:11:19.454Z,11
2022-10-19T05:12:19.493Z,12
2022-10-19T05:13:19.484Z,11
2022-10-19T05:14:19.490Z,12
2022-10-19T05:15:19.497Z,10
2022-10-19T05:16:19.500Z,9
2022-10-19T05:17:19.505Z,9
2022-10-19T05:18:19.514Z,8
2022-10-19T05:19:19.540Z,10
2022-10-19T05:20:19.436Z,9
2022-10-19T05:21:19.443Z,8
2022-10-19T05:22:19.408Z,16
2022-10-19T05:23:19.481Z,15
2022-10-19T05:24:19.422Z,19
2022-10-19T05:25:19.416Z,9
2022-10-19T05:26:19.558Z,7
2022-10-19T05:27:19.494Z,60
2022-10-19T05:28:19.409Z,57
2022-10-19T05:29:19.526Z,37
2022-10-19T05:30:19.417Z,36
2022-10-19T05:31:19.500Z,52
2022-10-19T05:32:19.437Z,56
2022-10-19T05:33:19.525Z,62
2022-10-19T05:34:19.488Z,99
2022-10-19T05:35:22.338Z,86
2022-10-19T05:36:19.424Z,89
2022-10-19T05:37:19.411Z,49
2022-10-19T05:38:19.417Z,83
2022-10-19T05:39:19.419Z,28
2022-10-19T05:40:19.421Z,95
2022-10-19T05:41:19.418Z,63
2022-10-19T05:42:19.461Z,77
2022-10-19T05:43:19.417Z,118
2022-10-19T05:44:19.430Z,91
2022-10-19T05:45:19.417Z,85
2022-10-19T05:46:19.439Z,97
2022-10-19T05:47:19.424Z,66
2022-10-19T05:48:19.406Z,102
2022-10-19T05:49:19.434Z,102
2022-10-19T05:50:19.529Z,73
2022-10-19T05:51:19.429Z,97
2022-10-19T05:52:19.431Z,49
2022-10-19T05:53:19.441Z,49
2022-10-19T05:54:20.360Z,81
2022-10-19T05:55:19.423Z,73
2022-10-19T05:56:19.461Z,105
2022-10-19T05:57:19.580Z,73
2022-10-19T05:58:19.471Z,80
2022-10-19T05:59:19.419Z,105
2022-10-19T06:00:19.444Z,52
2022-10-19T06:01:19.518Z,30
2022-10-19T06:02:19.503Z,82
2022-10-19T06:03:19.432Z,133
2022-10-19T06:04:19.502Z,99
2022-10-19T06:05:19.464Z,86
2022-10-19T06:06:19.517Z,63
2022-10-19T06:07:19.424Z,65
2022-10-19T06:08:19.417Z,152
2022-10-19T06:09:19.458Z,123
2022-10-19T06:10:19.787Z,62
2022-10-19T06:11:19.457Z,41
2022-10-19T06:12:22.874Z,78
2022-10-19T06:13:19.563Z,58
2022-10-19T06:14:19.457Z,91
2022-10-19T06:15:19.412Z,168
2022-10-19T06:16:19.420Z,89
2022-10-19T06:17:19.488Z,72
2022-10-19T06:18:19.484Z,49
2022-10-19T06:19:19.436Z,102
2022-10-19T06:20:19.530Z,128
2022-10-19T06:21:19.517Z,96
2022-10-19T06:22:19.412Z,86
2022-10-19T06:23:19.525Z,63
2022-10-19T06:24:19.441Z,33
2022-10-19T06:25:20.388Z,57
2022-10-19T06:26:19.447Z,85
2022-10-19T06:27:19.506Z,89
2022-10-19T06:28:19.450Z,80
2022-10-19T06:29:19.575Z,46
2022-10-19T06:30:19.453Z,66
2022-10-19T06:31:19.495Z,84
2022-10-19T06:32:19.407Z,75
2022-10-19T06:33:19.485Z,25
2022-10-19T06:34:19.559Z,102
2022-10-19T06:35:19.410Z,71
2022-10-19T06:36:19.460Z,86
2022-10-19T06:37:19.522Z,100
2022-10-19T06:38:19.532Z,51
2022-10-19T06:39:19.455Z,43
2022-10-19T06:40:19.535Z,57
2022-10-19T06:41:19.605Z,23
2022-10-19T06:42:19.459Z,43
2022-10-19T06:43:19.657Z,14
2022-10-19T06:44:19.625Z,11
2022-10-19T06:45:19.714Z,10
2022-10-19T06:46:19.666Z,9
2022-10-19T06:47:19.492Z,11
2022-10-19T06:48:19.481Z,10
2022-10-19T06:49:19.592Z,12
2022-10-19T06:50:19.467Z,11
2022-10-19T06:51:19.438Z,9
2022-10-19T06:52:19.572Z,10
2022-10-19T06:53:19.462Z,10
2022-10-19T06:54:19.442Z,10
2022-10-19T06:55:19.416Z,9
2022-10-19T06:56:19.490Z,10
2022-10-19T06:57:19.523Z,13
2022-10-19T06:58:19.497Z,12
2022-10-19T06:59:19.525Z,11
2022-10-19T07:00:19.468Z,9
2022-10-19T07:01:19.587Z,10
2022-10-19T07:02:19.455Z,12
2022-10-19T07:03:19.430Z,11
2022-10-19T07:04:19.465Z,11
2022-10-19T07:05:19.418Z,9
2022-10-19T07:06:19.465Z,9
2022-10-19T07:07:19.464Z,9
2022-10-19T07:08:19.455Z,9
2022-10-19T07:09:19.435Z,9
2022-10-19T07:10:19.472Z,8
2022-10-19T07:11:19.502Z,9
2022-10-19T07:12:19.499Z,9
2022-10-19T07:13:19.498Z,8
2022-10-19T07:14:19.504Z,11
2022-10-19T07:15:19.450Z,10
2022-10-19T07:16:20.931Z,12
2022-10-19T07:17:19.417Z,11
2022-10-19T07:18:19.525Z,9
2022-10-19T07:19:19.440Z,10
2022-10-19T07:20:19.432Z,12
2022-10-19T07:21:19.435Z,11
2022-10-19T07:22:23.238Z,7
2022-10-19T07:23:19.556Z,10
2022-10-19T07:24:19.424Z,14
2022-10-19T07:25:19.410Z,11
2022-10-19T07:26:19.480Z,10
2022-10-19T07:27:19.513Z,12
2022-10-19T07:28:19.489Z,11
2022-10-19T07:29:19.504Z,9
2022-10-19T07:30:19.429Z,10
2022-10-19T07:31:19.502Z,8
2022-10-19T07:32:19.426Z,11
2022-10-19T07:33:19.559Z,11
2022-10-19T07:34:19.536Z,12
2022-10-19T07:35:19.421Z,9
2022-10-19T07:36:19.419Z,11
2022-10-19T07:37:19.439Z,7
2022-10-19T07:38:19.548Z,11
2022-10-19T07:39:19.571Z,8
2022-10-19T07:40:19.451Z,11
2022-10-19T07:41:19.465Z,8
2022-10-19T07:42:19.566Z,11
2022-10-19T07:43:19.417Z,9
2022-10-19T07:44:19.495Z,9
2022-10-19T07:45:19.493Z,10
2022-10-19T07:46:19.500Z,10
2022-10-19T07:47:19.460Z,10
2022-10-19T07:48:19.416Z,7
2022-10-19T07:49:19.466Z,8
2022-10-19T07:50:19.545Z,11
2022-10-19T07:51:19.561Z,9
2022-10-19T07:52:19.467Z,8
2022-10-19T07:53:19.624Z,9
2022-10-19T07:54:19.564Z,10
2022-10-19T07:55:19.589Z,8
2022-10-19T07:56:19.649Z,7
2022-10-19T07:57:19.831Z,9
2022-10-19T07:58:19.566Z,8
2022-10-19T07:59:19.679Z,10
2022-10-19T08:00:19.726Z,8
2022-10-19T08:01:19.813Z,9
2022-10-19T08:02:19.961Z,9
2022-10-19T08:04:13.836Z,9
2022-10-19T08:05:19.625Z,8
2022-10-19T08:06:19.528Z,11
2022-10-19T08:07:19.431Z,10
2022-10-19T08:08:19.434Z,9
2022-10-19T08:09:40.452Z,9
2022-10-19T08:10:19.555Z,10
2022-10-19T08:11:19.425Z,8
2022-10-19T08:12:19.472Z,8
2022-10-19T08:13:19.467Z,12
2022-10-19T08:14:19.444Z,9
2022-10-19T08:15:19.424Z,11
2022-10-19T08:16:19.524Z,10
2022-10-19T08:17:19.498Z,10
2022-10-19T08:18:19.572Z,8
2022-10-19T08:19:19.523Z,10
2022-10-19T08:20:19.420Z,12
2022-10-19T08:21:19.510Z,9
2022-10-19T08:22:19.534Z,8
2022-10-19T08:23:19.417Z,10
2022-10-19T08:24:19.440Z,9
2022-10-19T08:25:19.482Z,9
2022-10-19T08:26:19.548Z,7
2022-10-19T08:27:19.469Z,10
2022-10-19T08:28:19.425Z,9
2022-10-19T08:29:19.486Z,10
2022-10-19T08:30:19.427Z,10
2022-10-19T08:31:19.506Z,9
2022-10-19T08:32:19.414Z,11
2022-10-19T08:33:19.468Z,10
2022-10-19T08:34:19.517Z,9
2022-10-19T08:35:19.545Z,9
2022-10-19T08:36:19.428Z,11
2022-10-19T08:37:26.426Z,8
2022-10-19T08:38:19.528Z,13
2022-10-19T08:39:19.448Z,6
2022-10-19T08:40:19.459Z,9
2022-10-19T08:41:19.464Z,10
2022-10-19T08:42:19.572Z,11
2022-10-19T08:43:19.456Z,9
2022-10-19T08:44:19.479Z,10
2022-10-19T08:45:19.467Z,10
2022-10-19T08:46:19.478Z,7
2022-10-19T08:47:23.316Z,9
2022-10-19T08:48:19.423Z,9
2022-10-19T08:49:19.507Z,11
2022-10-19T08:50:19.424Z,10
2022-10-19T08:51:19.508Z,10
2022-10-19T08:52:19.512Z,12
2022-10-19T08:53:19.437Z,10
2022-10-19T08:54:19.444Z,9
2022-10-19T08:55:20.560Z,10
2022-10-19T08:56:38.851Z,11
2022-10-19T08:57:19.484Z,9
2022-10-19T08:58:19.452Z,11
2022-10-19T08:59:19.472Z,16
2022-10-19T09:00:19.440Z,11
2022-10-19T09:01:19.465Z,8
2022-10-19T09:02:19.470Z,9
2022-10-19T09:03:27.150Z,10
2022-10-19T09:04:19.486Z,10
2022-10-19T09:05:19.473Z,10
2022-10-19T09:06:19.536Z,8
2022-10-19T09:07:19.528Z,7
2022-10-19T09:08:19.412Z,8
2022-10-19T09:09:19.452Z,11
2022-10-19T09:10:19.618Z,10
2022-10-19T09:11:19.429Z,11
2022-10-19T09:12:19.566Z,11
2022-10-19T09:13:19.480Z,12
2022-10-19T09:14:19.445Z,8
2022-10-19T09:15:19.451Z,12
2022-10-19T09:16:19.420Z,9
2022-10-19T09:17:19.448Z,15
2022-10-19T09:18:19.470Z,11
2022-10-19T09:19:19.455Z,8
2022-10-19T09:20:19.593Z,10
2022-10-19T09:21:19.493Z,9
2022-10-19T09:22:19.448Z,8
2022-10-19T09:23:19.423Z,10
2022-10-19T09:24:19.548Z,11
2022-10-19T09:25:19.525Z,10
2022-10-19T09:26:19.414Z,8
2022-10-19T09:27:19.555Z,6
2022-10-19T09:28:19.605Z,10
2022-10-19T09:29:19.457Z,7
2022-10-19T09:30:19.542Z,9
2022-10-19T09:31:19.584Z,10
2022-10-19T09:32:19.555Z,7
2022-10-19T09:33:19.421Z,7
2022-10-19T09:34:19.427Z,7
2022-10-19T09:35:19.445Z,9
2022-10-19T09:36:27.615Z,9
2022-10-19T09:37:25.706Z,10
2022-10-19T09:38:19.427Z,12
2022-10-19T09:39:19.521Z,10
2022-10-19T09:40:19.534Z,12
2022-10-19T09:41:19.421Z,9
2022-10-19T09:42:19.553Z,10
2022-10-19T09:43:19.469Z,10
2022-10-19T09:44:19.556Z,8
2022-10-19T09:45:19.452Z,10
2022-10-19T09:46:20.451Z,8
2022-10-19T09:47:19.475Z,10
2022-10-19T09:48:19.467Z,9
2022-10-19T09:49:19.502Z,8
2022-10-19T09:50:19.479Z,7
2022-10-19T09:51:19.482Z,7
2022-10-19T09:52:19.494Z,10
2022-10-19T09:53:19.501Z,7
2022-10-19T09:54:19.446Z,7
2022-10-19T09:55:19.431Z,7
2022-10-19T09:56:19.438Z,8
2022-10-19T09:57:19.552Z,8
2022-10-19T09:58:19.544Z,8
2022-10-19T09:59:19.487Z,11
2022-10-19T10:00:19.471Z,7
2022-10-19T10:01:19.438Z,12
2022-10-19T10:02:19.455Z,10
2022-10-19T10:03:19.456Z,10
2022-10-19T10:04:19.432Z,7
2022-10-19T10:05:19.424Z,9
2022-10-19T10:06:19.482Z,7
2022-10-19T10:07:19.502Z,8
2022-10-19T10:08:19.524Z,8
2022-10-19T10:09:19.516Z,6
2022-10-19T10:10:19.516Z,8
2022-10-19T10:11:19.509Z,11
2022-10-19T10:12:19.438Z,13
2022-10-19T10:13:19.453Z,6
2022-10-19T10:14:19.456Z,9
2022-10-19T10:15:19.465Z,7
2022-10-19T10:16:19.441Z,7
2022-10-19T10:17:19.453Z,8
2022-10-19T10:18:19.473Z,7
2022-10-19T10:19:20.811Z,7
2022-10-19T10:20:19.464Z,13
2022-10-19T10:21:24.424Z,8
2022-10-19T10:22:19.596Z,12
2022-10-19T10:23:19.503Z,12
2022-10-19T10:24:19.446Z,9
2022-10-19T10:25:19.433Z,7
2022-10-19T10:26:19.426Z,10
2022-10-19T10:27:19.537Z,9
2022-10-19T10:28:19.532Z,6
2022-10-19T10:29:19.460Z,9
2022-10-19T10:30:19.549Z,7
2022-10-19T10:31:19.538Z,8
2022-10-19T10:32:19.547Z,6
2022-10-19T10:33:27.271Z,7
2022-10-19T10:34:28.662Z,7
2022-10-19T10:35:19.439Z,12
2022-10-19T10:36:19.458Z,6
2022-10-19T10:37:19.432Z,7
2022-10-19T10:38:19.485Z,7
2022-10-19T10:39:19.525Z,10
2022-10-19T10:40:23.260Z,6
2022-10-19T10:41:19.502Z,7
2022-10-19T10:42:19.524Z,10
2022-10-19T10:43:19.520Z,8
2022-10-19T10:44:19.448Z,10
2022-10-19T10:45:19.533Z,7
2022-10-19T10:46:19.544Z,9
2022-10-19T10:47:19.533Z,7
2022-10-19T10:48:19.548Z,7
2022-10-19T10:49:19.467Z,12
2022-10-19T10:50:19.420Z,7
2022-10-19T10:51:19.444Z,12
2022-10-19T10:52:19.438Z,8
2022-10-19T10:53:19.533Z,7
2022-10-19T10:54:19.496Z,10
2022-10-19T10:55:19.504Z,10
2022-10-19T10:56:19.602Z,7
2022-10-19T10:57:19.587Z,6
2022-10-19T10:58:19.497Z,7
2022-10-19T10:59:19.539Z,8
2022-10-19T11:00:19.429Z,8
2022-10-19T11:01:19.593Z,7
2022-10-19T11:02:19.629Z,9
2022-10-19T11:03:19.475Z,7
2022-10-19T11:04:19.456Z,8
2022-10-19T11:05:19.445Z,12
2022-10-19T11:06:19.513Z,8
2022-10-19T11:07:19.466Z,8
2022-10-19T11:08:19.454Z,7
2022-10-19T11:09:19.583Z,9
2022-10-19T11:10:19.687Z,9
2022-10-19T11:11:19.431Z,6
2022-10-19T11:12:19.514Z,8
2022-10-19T11:13:19.450Z,9
2022-10-19T11:14:19.520Z,7
2022-10-19T11:15:19.965Z,7
2022-10-19T11:16:19.439Z,6
2022-10-19T11:17:19.527Z,10
2022-10-19T11:18:19.475Z,7
2022-10-19T11:19:19.564Z,6
2022-10-19T11:20:19.561Z,12
2022-10-19T11:21:19.550Z,9
2022-10-19T11:22:22.402Z,7
2022-10-19T11:23:19.470Z,6
2022-10-19T11:24:19.552Z,6
2022-10-19T11:25:19.569Z,7
2022-10-19T11:26:19.439Z,6
2022-10-19T11:27:19.502Z,7
2022-10-19T11:28:19.508Z,8
2022-10-19T11:29:19.461Z,9
2022-10-19T11:30:19.455Z,9
2022-10-19T11:31:19.520Z,6
2022-10-19T11:32:19.521Z,9
2022-10-19T11:33:19.533Z,8
2022-10-19T11:34:23.635Z,10
2022-10-19T11:35:19.549Z,14
2022-10-19T11:36:19.549Z,12
2022-10-19T11:37:19.555Z,12
2022-10-19T11:38:22.111Z,10
2022-10-19T11:39:19.586Z,9
2022-10-19T11:40:22.075Z,6
2022-10-19T11:41:19.613Z,18
2022-10-19T11:42:19.452Z,9
2022-10-19T11:43:20.450Z,13
2022-10-19T11:44:19.494Z,7
2022-10-19T11:45:19.506Z,9
2022-10-19T11:46:19.511Z,12
2022-10-19T11:47:19.512Z,9
2022-10-19T11:48:19.514Z,9
2022-10-19T11:49:19.491Z,7
2022-10-19T11:50:19.547Z,11
2022-10-19T11:51:21.745Z,6
2022-10-19T11:52:19.571Z,9
2022-10-19T11:53:19.550Z,10
2022-10-19T11:54:19.470Z,6
2022-10-19T11:55:19.447Z,6
2022-10-19T11:56:19.571Z,6
2022-10-19T11:57:19.507Z,6
2022-10-19T11:58:19.487Z,7
2022-10-19T11:59:19.520Z,6
2022-10-19T12:00:39.091Z,6
2022-10-19T12:01:19.509Z,7
2022-10-19T12:02:19.576Z,8
2022-10-19T12:03:19.508Z,9
2022-10-19T12:04:19.540Z,7
2022-10-19T12:05:19.476Z,8
2022-10-19T12:06:19.445Z,5
2022-10-19T12:07:19.645Z,5
2022-10-19T12:09:19.625Z,6
2022-10-19T12:10:19.592Z,10
2022-10-19T12:11:19.573Z,10
2022-10-19T12:12:19.635Z,7
2022-10-19T12:13:19.585Z,5
2022-10-19T12:14:19.579Z,8
2022-10-19T12:15:19.490Z,6
2022-10-19T12:16:19.666Z,7
2022-10-19T12:17:19.601Z,7
2022-10-19T12:18:19.656Z,8
2022-10-19T12:19:19.784Z,9
2022-10-19T12:20:19.964Z,5
2022-10-19T12:21:19.633Z,7
2022-10-19T12:22:19.663Z,10
2022-10-19T12:23:19.733Z,7
2022-10-19T12:24:19.872Z,9
2022-10-19T12:25:19.815Z,8
2022-10-19T12:26:19.848Z,6
2022-10-19T12:27:19.873Z,7
2022-10-19T12:28:19.589Z,8
2022-10-19T12:29:19.498Z,8
2022-10-19T12:30:19.457Z,8
2022-10-19T12:31:19.507Z,7
2022-10-19T12:32:19.467Z,9
2022-10-19T12:33:19.518Z,11
2022-10-19T12:34:19.523Z,7
2022-10-19T12:36:19.545Z,9
2022-10-19T12:37:19.533Z,7
2022-10-19T12:38:19.538Z,5
2022-10-19T12:39:19.549Z,8
2022-10-19T12:40:19.448Z,8
2022-10-19T12:41:19.449Z,10
2022-10-19T12:42:19.574Z,8
2022-10-19T12:43:19.519Z,7
2022-10-19T12:44:19.523Z,8
2022-10-19T12:45:19.483Z,6
2022-10-19T12:46:19.604Z,6
2022-10-19T12:47:19.465Z,9
2022-10-19T12:48:19.486Z,7
2022-10-19T12:49:19.523Z,8
2022-10-19T12:51:19.516Z,9
2022-10-19T12:52:19.463Z,9
2022-10-19T12:53:19.501Z,7
2022-10-19T12:54:19.550Z,8
2022-10-19T12:55:19.541Z,7
2022-10-19T12:56:19.455Z,6
2022-10-19T12:57:22.781Z,8
2022-10-19T12:58:19.569Z,5
2022-10-19T12:59:19.583Z,7
2022-10-19T13:00:19.474Z,9
2022-10-19T13:01:19.511Z,6
2022-10-19T13:02:19.570Z,10
2022-10-19T13:03:19.541Z,12
2022-10-19T13:04:19.516Z,12
2022-10-19T13:05:19.452Z,8
2022-10-19T13:06:19.525Z,9
2022-10-19T13:07:19.552Z,7
2022-10-19T13:08:19.530Z,6
2022-10-19T13:09:19.485Z,8
2022-10-19T13:10:19.544Z,7
2022-10-19T13:11:19.560Z,7
2022-10-19T13:12:21.937Z,5
2022-10-19T13:13:19.450Z,11
2022-10-19T13:14:19.604Z,7
2022-10-19T13:15:19.569Z,8
2022-10-19T13:16:19.470Z,5
2022-10-19T13:17:19.471Z,6
2022-10-19T13:18:19.481Z,9
2022-10-19T13:19:19.477Z,7
2022-10-19T13:20:19.501Z,7
2022-10-19T13:21:19.473Z,5
2022-10-19T13:22:19.620Z,6
2022-10-19T13:23:19.517Z,9
2022-10-19T13:24:19.540Z,7
2022-10-19T13:25:19.527Z,5
2022-10-19T13:26:19.540Z,8
2022-10-19T13:27:19.491Z,6
2022-10-19T13:28:19.562Z,6
2022-10-19T13:29:19.641Z,6
2022-10-19T13:30:24.898Z,6
2022-10-19T13:31:19.520Z,7
2022-10-19T13:32:19.568Z,5
2022-10-19T13:33:19.578Z,6
2022-10-19T13:34:19.602Z,8
2022-10-19T13:35:19.479Z,7
2022-10-19T13:36:19.485Z,12
2022-10-19T13:37:19.594Z,6
2022-10-19T13:38:19.608Z,10
2022-10-19T13:39:19.484Z,8
2022-10-19T13:40:23.677Z,8
2022-10-19T13:41:19.479Z,7
2022-10-19T13:42:19.557Z,9
2022-10-19T13:43:19.532Z,5
2022-10-19T13:44:19.548Z,7
2022-10-19T13:45:19.558Z,9
2022-10-19T13:46:19.549Z,5
2022-10-19T13:47:19.695Z,5
2022-10-19T13:48:19.563Z,6
2022-10-19T13:49:19.506Z,6
2022-10-19T13:50:19.516Z,6
2022-10-19T13:51:19.582Z,6
2022-10-19T13:52:19.475Z,7
2022-10-19T13:53:19.543Z,13
2022-10-19T13:54:19.621Z,5
2022-10-19T13:55:19.500Z,8
2022-10-19T13:56:19.514Z,8
2022-10-19T13:57:19.537Z,7
2022-10-19T13:58:19.523Z,6
2022-10-19T13:59:19.577Z,5
2022-10-19T14:00:19.549Z,9
2022-10-19T14:01:19.606Z,8
2022-10-19T14:02:19.471Z,10
2022-10-19T14:03:19.562Z,6
2022-10-19T14:04:19.487Z,10
2022-10-19T14:05:19.488Z,5
2022-10-19T14:06:21.336Z,8
2022-10-19T14:07:19.481Z,6
2022-10-19T14:08:19.599Z,6
2022-10-19T14:09:19.544Z,5
2022-10-19T14:10:21.001Z,7
2022-10-19T14:11:19.518Z,10
2022-10-19T14:12:19.561Z,9
2022-10-19T14:13:19.711Z,11
2022-10-19T14:14:19.619Z,10
2022-10-19T14:15:19.641Z,8
2022-10-19T14:16:19.620Z,9
2022-10-19T14:17:19.726Z,8
2022-10-19T14:18:19.838Z,5
2022-10-19T14:19:19.591Z,7
2022-10-19T14:20:19.855Z,7
2022-10-19T14:21:19.721Z,6
2022-10-19T14:22:19.856Z,10
2022-10-19T14:23:19.542Z,7
2022-10-19T14:24:19.881Z,6
2022-10-19T14:25:19.638Z,7
2022-10-19T14:26:19.636Z,9
2022-10-19T14:27:19.528Z,8
2022-10-19T14:28:19.628Z,6
2022-10-19T14:29:19.526Z,10
2022-10-19T14:30:19.510Z,8
2022-10-19T14:31:19.490Z,7
2022-10-19T14:32:19.553Z,6
2022-10-19T14:33:19.554Z,6